Time;durP1;ratioP1;P1;durP2;ratioP2;P2;SDS_P1;SDS_P2;PMS_P1;PMS_P2;Temp;Humidity;BMP_temperature;BMP_pressure;BME280_temperature;BME280_humidity;BME280_pressure;Samples;Min_cycle;Max_cycle;Signal;HPM_P1;HPM_P2
2022/03/10 00:01:52;;;;;;;7.10;5.00;;;;;;;;;;5035128;28;20401;-77
2022/03/10 00:04:18;;;;;;;7.70;5.23;;;;;;;;;;5034960;28;20969;-76
2022/03/10 00:06:45;;;;;;;8.03;4.83;;;;;;;;;;5035008;28;20504;-77
2022/03/10 00:09:14;;;;;;;11.03;5.00;;;;;;;;;;5033186;28;20428;-77
2022/03/10 00:11:40;;;;;;;8.87;5.13;;;;;;;;;;5034431;28;20441;-77
2022/03/10 00:14:06;;;;;;;7.80;5.43;;;;;;;;;;5032757;28;20416;-77
2022/03/10 00:16:32;;;;;;;6.57;4.60;;;;;;;;;;5034510;28;20417;-76
2022/03/10 00:18:58;;;;;;;8.27;5.43;;;;;;;;;;5034913;28;20920;-76
2022/03/10 00:21:24;;;;;;;10.27;5.73;;;;;;;;;;5034844;28;20410;-76
2022/03/10 00:23:50;;;;;;;9.70;5.40;;;;;;;;;;5033447;28;20431;-77
2022/03/10 00:26:16;;;;;;;5.87;3.83;;;;;;;;;;5033175;28;20436;-77
2022/03/10 00:28:41;;;;;;;7.50;5.00;;;;;;;;;;5034710;28;20417;-77
2022/03/10 00:31:07;;;;;;;10.40;5.70;;;;;;;;;;5034739;28;20778;-77
2022/03/10 00:33:33;;;;;;;8.73;5.57;;;;;;;;;;5034671;28;20416;-77
2022/03/10 00:35:59;;;;;;;6.10;4.40;;;;;;;;;;5034544;28;20405;-78
2022/03/10 00:38:25;;;;;;;5.20;4.40;;;;;;;;;;5033291;28;20429;-77
2022/03/10 00:40:51;;;;;;;7.57;5.60;;;;;;;;;;5034097;28;20417;-77
2022/03/10 00:43:17;;;;;;;9.30;4.80;;;;;;;;;;5034546;28;20405;-78
2022/03/10 00:45:43;;;;;;;9.40;5.33;;;;;;;;;;5034331;28;20535;-77
2022/03/10 00:48:09;;;;;;;6.93;4.80;;;;;;;;;;5034353;28;20417;-77
2022/03/10 00:50:35;;;;;;;7.13;4.63;;;;;;;;;;5034023;28;20511;-77
2022/03/10 00:53:01;;;;;;;6.50;4.27;;;;;;;;;;5034242;28;20425;-77
2022/03/10 00:55:27;;;;;;;10.97;6.17;;;;;;;;;;5033724;28;20412;-77
2022/03/10 00:57:53;;;;;;;6.30;4.57;;;;;;;;;;5034324;28;20417;-77
2022/03/10 01:00:24;;;;;;;8.30;4.00;;;;;;;;;;5034247;28;20417;-77
2022/03/10 01:02:50;;;;;;;8.10;4.97;;;;;;;;;;5032856;28;20516;-79
2022/03/10 01:05:16;;;;;;;10.07;4.73;;;;;;;;;;5033928;28;20472;-78
2022/03/10 01:07:42;;;;;;;7.73;4.97;;;;;;;;;;5033877;28;20630;-79
2022/03/10 01:10:08;;;;;;;7.63;5.37;;;;;;;;;;5032271;28;20486;-78
2022/03/10 01:12:35;;;;;;;6.80;4.60;;;;;;;;;;5033782;28;20421;-77
2022/03/10 01:15:01;;;;;;;7.40;5.03;;;;;;;;;;5033796;28;20419;-77
2022/03/10 01:17:27;;;;;;;11.97;6.50;;;;;;;;;;5033789;28;20405;-77
2022/03/10 01:19:53;;;;;;;6.20;4.93;;;;;;;;;;5033648;28;20431;-77
2022/03/10 01:22:19;;;;;;;5.47;4.30;;;;;;;;;;5033568;28;20417;-77
2022/03/10 01:24:45;;;;;;;6.03;4.70;;;;;;;;;;5033219;28;20515;-77
2022/03/10 01:27:11;;;;;;;8.50;5.23;;;;;;;;;;5033586;28;20411;-77
2022/03/10 01:29:37;;;;;;;7.30;4.83;;;;;;;;;;5033538;28;20464;-76
2022/03/10 01:32:03;;;;;;;7.53;4.90;;;;;;;;;;5033521;28;20417;-77
2022/03/10 01:34:29;;;;;;;5.70;4.70;;;;;;;;;;5033482;28;20424;-77
2022/03/10 01:36:55;;;;;;;7.67;5.50;;;;;;;;;;5033146;28;20551;-76
2022/03/10 01:39:21;;;;;;;9.80;5.30;;;;;;;;;;5031730;28;20512;-77
2022/03/10 01:41:47;;;;;;;7.50;5.23;;;;;;;;;;5033332;28;20491;-76
2022/03/10 01:44:13;;;;;;;8.53;5.27;;;;;;;;;;5033311;28;20466;-77
2022/03/10 01:46:39;;;;;;;8.00;5.27;;;;;;;;;;5033253;28;20494;-76
2022/03/10 01:49:06;;;;;;;7.27;4.73;;;;;;;;;;5033271;28;20899;-77
2022/03/10 01:51:33;;;;;;;9.07;4.50;;;;;;;;;;5033164;28;20400;-76
2022/03/10 01:53:59;;;;;;;10.17;5.90;;;;;;;;;;5032847;28;20405;-77
2022/03/10 01:56:25;;;;;;;8.23;5.60;;;;;;;;;;5033112;28;20409;-76
2022/03/10 01:58:52;;;;;;;7.43;5.53;;;;;;;;;;5031784;28;20437;-76
2022/03/10 02:01:19;;;;;;;7.90;6.00;;;;;;;;;;5032431;28;20933;-77
2022/03/10 02:03:45;;;;;;;12.20;6.10;;;;;;;;;;5032896;28;20413;-77
2022/03/10 02:06:12;;;;;;;8.87;4.93;;;;;;;;;;5033013;28;20803;-77
2022/03/10 02:11:28;;;;;;;9.20;6.47;;;;;;;;;;5004421;28;20918;-76
2022/03/10 02:13:54;;;;;;;8.40;6.23;;;;;;;;;;5032926;28;20411;-76
2022/03/10 02:19:04;;;;;;;6.97;5.60;;;;;;;;;;5032845;28;20449;-77
2022/03/10 02:21:30;;;;;;;10.17;6.03;;;;;;;;;;5032842;28;20839;-77
2022/03/10 02:23:56;;;;;;;7.20;5.23;;;;;;;;;;5032411;28;20422;-76
2022/03/10 02:26:22;;;;;;;6.30;5.10;;;;;;;;;;5031531;28;20434;-77
2022/03/10 02:28:49;;;;;;;10.00;5.60;;;;;;;;;;5032762;28;20413;-77
2022/03/10 02:31:15;;;;;;;9.37;5.27;;;;;;;;;;5032721;28;20444;-77
2022/03/10 02:33:41;;;;;;;8.80;5.57;;;;;;;;;;5032670;28;20449;-76
2022/03/10 02:36:07;;;;;;;8.33;5.77;;;;;;;;;;5032485;28;20469;-76
2022/03/10 02:38:34;;;;;;;7.50;5.10;;;;;;;;;;5032722;28;20802;-77
2022/03/10 02:41:00;;;;;;;8.50;5.83;;;;;;;;;;5032353;28;20418;-77
2022/03/10 02:43:26;;;;;;;11.73;5.53;;;;;;;;;;5032703;28;20449;-76
2022/03/10 02:45:52;;;;;;;7.03;5.67;;;;;;;;;;5032518;28;20501;-76
2022/03/10 02:48:18;;;;;;;10.30;5.90;;;;;;;;;;5032613;28;20497;-76
2022/03/10 02:50:45;;;;;;;10.43;5.93;;;;;;;;;;5032530;28;20444;-76
2022/03/10 02:53:11;;;;;;;9.67;5.40;;;;;;;;;;5031294;28;20411;-77
2022/03/10 02:55:40;;;;;;;11.13;5.93;;;;;;;;;;5032200;28;20410;-77
2022/03/10 02:58:06;;;;;;;12.10;5.90;;;;;;;;;;5032485;28;20485;-76
2022/03/10 03:00:32;;;;;;;7.53;5.57;;;;;;;;;;5031150;28;20530;-77
2022/03/10 03:02:58;;;;;;;7.40;5.20;;;;;;;;;;5032293;28;20542;-77
2022/03/10 03:05:24;;;;;;;6.57;5.17;;;;;;;;;;5032358;28;20560;-76
2022/03/10 03:07:51;;;;;;;9.67;6.60;;;;;;;;;;5032464;28;20760;-76
2022/03/10 03:10:17;;;;;;;6.80;5.20;;;;;;;;;;5032103;28;20420;-77
2022/03/10 03:12:47;;;;;;;9.20;7.00;;;;;;;;;;5032471;28;20414;-77
2022/03/10 03:15:13;;;;;;;8.40;5.37;;;;;;;;;;5036062;28;20420;-77
2022/03/10 03:17:38;;;;;;;8.57;5.27;;;;;;;;;;5035984;28;20482;-76
2022/03/10 03:20:05;;;;;;;7.17;4.83;;;;;;;;;;5036015;28;20479;-77
2022/03/10 03:22:31;;;;;;;8.80;5.70;;;;;;;;;;5035937;28;20495;-77
2022/03/10 03:24:57;;;;;;;7.90;5.10;;;;;;;;;;5035444;28;20956;-77
2022/03/10 03:27:23;;;;;;;6.60;4.97;;;;;;;;;;5034466;28;20511;-77
2022/03/10 03:29:49;;;;;;;10.57;5.70;;;;;;;;;;5034453;28;20471;-76
2022/03/10 03:32:18;;;;;;;7.97;5.13;;;;;;;;;;5035580;28;20409;-76
2022/03/10 03:34:44;;;;;;;8.10;5.07;;;;;;;;;;5034704;28;20717;-76
2022/03/10 03:37:10;;;;;;;9.60;6.10;;;;;;;;;;5032611;28;20543;-76
2022/03/10 03:39:36;;;;;;;7.30;5.53;;;;;;;;;;5034643;28;20961;-76
2022/03/10 03:42:02;;;;;;;7.47;4.47;;;;;;;;;;5035079;28;20442;-77
2022/03/10 03:44:28;;;;;;;10.70;6.60;;;;;;;;;;5035531;28;20579;-76
2022/03/10 03:46:54;;;;;;;8.17;5.67;;;;;;;;;;5034250;28;20413;-76
2022/03/10 03:49:19;;;;;;;8.73;5.20;;;;;;;;;;5034105;28;20924;-77
2022/03/10 03:51:45;;;;;;;8.80;6.13;;;;;;;;;;5035443;28;20405;-77
2022/03/10 03:54:11;;;;;;;6.57;4.57;;;;;;;;;;5034958;28;20410;-77
2022/03/10 03:56:37;;;;;;;11.27;6.90;;;;;;;;;;5035354;28;20895;-76
2022/03/10 03:59:04;;;;;;;10.67;7.43;;;;;;;;;;5034009;28;20468;-76
2022/03/10 04:01:30;;;;;;;10.43;7.63;;;;;;;;;;5035233;28;20420;-76
2022/03/10 04:03:56;;;;;;;10.63;6.90;;;;;;;;;;5035123;28;20417;-77
2022/03/10 04:06:22;;;;;;;9.53;5.87;;;;;;;;;;5035182;28;20466;-77
2022/03/10 04:08:48;;;;;;;7.13;5.63;;;;;;;;;;5034688;28;20893;-76
2022/03/10 04:11:14;;;;;;;8.40;5.80;;;;;;;;;;5034965;28;20470;-76
2022/03/10 04:13:40;;;;;;;7.50;5.83;;;;;;;;;;5034900;28;20413;-77
2022/03/10 04:16:06;;;;;;;10.67;6.37;;;;;;;;;;5034950;28;20417;-76
2022/03/10 04:18:33;;;;;;;10.33;6.60;;;;;;;;;;5034881;28;20412;-76
2022/03/10 04:20:59;;;;;;;11.63;6.50;;;;;;;;;;5034949;28;20404;-76
2022/03/10 04:23:26;;;;;;;11.10;7.80;;;;;;;;;;5034208;28;20423;-76
2022/03/10 04:25:53;;;;;;;11.53;6.73;;;;;;;;;;5034307;28;20508;-77
2022/03/10 04:28:18;;;;;;;8.70;6.90;;;;;;;;;;5034755;28;20464;-76
2022/03/10 04:30:44;;;;;;;8.93;5.90;;;;;;;;;;5033424;28;20425;-77
2022/03/10 04:33:10;;;;;;;16.53;7.20;;;;;;;;;;5033382;28;20500;-77
2022/03/10 04:35:36;;;;;;;10.43;7.30;;;;;;;;;;5034574;28;20400;-76
2022/03/10 04:38:02;;;;;;;12.67;6.40;;;;;;;;;;5034371;28;20464;-76
2022/03/10 04:40:29;;;;;;;10.60;7.73;;;;;;;;;;5032870;28;20420;-77
2022/03/10 04:42:55;;;;;;;9.80;6.83;;;;;;;;;;5034423;28;20413;-77
2022/03/10 04:45:21;;;;;;;12.20;8.07;;;;;;;;;;5034251;28;20472;-76
2022/03/10 04:47:47;;;;;;;13.10;7.97;;;;;;;;;;5034431;28;20454;-76
2022/03/10 04:50:13;;;;;;;10.03;6.30;;;;;;;;;;5034328;28;20409;-76
2022/03/10 04:52:39;;;;;;;19.47;8.40;;;;;;;;;;5032955;28;20452;-76
2022/03/10 04:55:06;;;;;;;13.47;7.97;;;;;;;;;;5033814;28;20505;-76
2022/03/10 04:57:32;;;;;;;9.87;6.87;;;;;;;;;;5034048;28;20477;-77
2022/03/10 04:59:58;;;;;;;11.93;8.07;;;;;;;;;;5034155;28;20809;-76
2022/03/10 05:02:23;;;;;;;13.27;7.10;;;;;;;;;;5032829;28;20409;-77
2022/03/10 05:04:49;;;;;;;8.73;5.83;;;;;;;;;;5033895;28;20526;-76
2022/03/10 05:07:18;;;;;;;11.97;6.57;;;;;;;;;;5033995;28;20477;-77
2022/03/10 05:09:44;;;;;;;11.90;7.20;;;;;;;;;;5033532;28;20755;-77
2022/03/10 05:12:10;;;;;;;11.37;7.90;;;;;;;;;;5033939;28;20412;-76
2022/03/10 05:14:36;;;;;;;10.53;6.57;;;;;;;;;;5033814;28;20408;-76
2022/03/10 05:17:02;;;;;;;12.03;6.93;;;;;;;;;;5033685;28;21023;-77
2022/03/10 05:19:28;;;;;;;13.03;7.50;;;;;;;;;;5033775;28;20412;-76
2022/03/10 05:21:54;;;;;;;8.10;6.50;;;;;;;;;;5033673;28;20480;-77
2022/03/10 05:24:20;;;;;;;9.30;7.13;;;;;;;;;;5033267;28;20547;-76
2022/03/10 05:26:47;;;;;;;14.57;8.30;;;;;;;;;;5033670;28;20505;-76
2022/03/10 05:29:13;;;;;;;10.93;7.00;;;;;;;;;;5033507;28;20419;-76
2022/03/10 05:31:40;;;;;;;13.90;7.30;;;;;;;;;;5033509;28;20744;-77
2022/03/10 05:34:06;;;;;;;13.43;8.57;;;;;;;;;;5033467;28;20411;-76
2022/03/10 05:36:32;;;;;;;11.70;8.20;;;;;;;;;;5032353;28;20496;-76
2022/03/10 05:38:57;;;;;;;11.57;7.40;;;;;;;;;;5033227;28;20401;-76
2022/03/10 05:41:23;;;;;;;15.33;8.37;;;;;;;;;;5033620;28;20776;-76
2022/03/10 05:43:49;;;;;;;16.70;8.87;;;;;;;;;;5033245;28;20415;-77
2022/03/10 05:46:15;;;;;;;11.77;7.63;;;;;;;;;;5033397;28;20424;-77
2022/03/10 05:48:41;;;;;;;13.60;7.40;;;;;;;;;;5031563;28;20425;-76
2022/03/10 05:51:07;;;;;;;13.63;7.23;;;;;;;;;;5031980;28;20433;-76
2022/03/10 05:53:33;;;;;;;12.30;9.00;;;;;;;;;;5032830;28;20416;-76
2022/03/10 05:55:59;;;;;;;10.77;7.83;;;;;;;;;;5033262;28;20455;-77
2022/03/10 05:58:25;;;;;;;12.10;8.03;;;;;;;;;;5031898;28;20421;-77
2022/03/10 06:00:51;;;;;;;13.00;8.67;;;;;;;;;;5031773;28;20417;-77
2022/03/10 06:03:19;;;;;;;13.33;8.20;;;;;;;;;;5031760;28;20412;-76
2022/03/10 06:05:45;;;;;;;12.67;7.67;;;;;;;;;;5031777;28;20476;-77
2022/03/10 06:08:11;;;;;;;14.07;7.70;;;;;;;;;;5032621;28;20408;-76
2022/03/10 06:10:37;;;;;;;10.60;7.50;;;;;;;;;;5031856;28;20508;-77
2022/03/10 06:13:02;;;;;;;11.50;7.60;;;;;;;;;;5031747;28;20922;-78
2022/03/10 06:15:28;;;;;;;11.40;7.40;;;;;;;;;;5031699;28;20512;-78
2022/03/10 06:17:57;;;;;;;12.00;8.10;;;;;;;;;;5031602;28;20460;-78
2022/03/10 06:20:30;;;;;;;9.87;7.60;;;;;;;;;;5032838;28;20427;-77
2022/03/10 06:22:55;;;;;;;14.13;8.30;;;;;;;;;;5032970;28;20405;-80
2022/03/10 06:25:21;;;;;;;9.97;7.07;;;;;;;;;;5031199;28;20999;-79
2022/03/10 06:27:47;;;;;;;12.80;7.93;;;;;;;;;;5032803;28;20411;-79
2022/03/10 06:30:16;;;;;;;16.33;9.20;;;;;;;;;;5032931;28;20408;-77
2022/03/10 06:32:41;;;;;;;10.10;7.17;;;;;;;;;;5032749;28;20507;-77
2022/03/10 06:35:08;;;;;;;16.70;9.63;;;;;;;;;;5032796;28;20497;-77
2022/03/10 06:37:34;;;;;;;8.77;7.50;;;;;;;;;;5031234;28;21002;-79
2022/03/10 06:40:02;;;;;;;11.23;7.70;;;;;;;;;;5032402;28;20423;-77
2022/03/10 06:42:28;;;;;;;14.30;9.10;;;;;;;;;;5031261;28;20421;-77
2022/03/10 06:44:54;;;;;;;9.53;6.63;;;;;;;;;;5031274;28;20494;-77
2022/03/10 06:47:20;;;;;;;10.90;7.10;;;;;;;;;;5033541;28;20405;-79
2022/03/10 06:49:46;;;;;;;14.30;8.10;;;;;;;;;;5036514;28;20806;-79
2022/03/10 06:52:12;;;;;;;12.27;7.57;;;;;;;;;;5036530;28;20408;-79
2022/03/10 06:54:38;;;;;;;13.03;8.13;;;;;;;;;;5036159;28;20417;-80
2022/03/10 06:57:05;;;;;;;12.03;8.00;;;;;;;;;;5036456;28;20488;-79
2022/03/10 06:59:31;;;;;;;9.63;6.70;;;;;;;;;;5035152;28;20973;-80
2022/03/10 07:01:57;;;;;;;11.60;6.97;;;;;;;;;;5036305;28;20441;-77
2022/03/10 07:04:23;;;;;;;11.33;7.67;;;;;;;;;;5036209;28;20459;-77
2022/03/10 07:06:49;;;;;;;11.70;8.20;;;;;;;;;;5036306;28;20422;-77
2022/03/10 07:09:15;;;;;;;9.13;7.23;;;;;;;;;;5035772;28;20748;-77
2022/03/10 07:11:41;;;;;;;9.20;6.30;;;;;;;;;;5036103;28;20745;-78
2022/03/10 07:14:07;;;;;;;13.20;8.20;;;;;;;;;;5036043;28;20413;-77
2022/03/10 07:16:32;;;;;;;12.07;6.90;;;;;;;;;;5035966;28;20515;-77
2022/03/10 07:18:58;;;;;;;8.70;7.03;;;;;;;;;;5036070;28;20784;-78
2022/03/10 07:21:24;;;;;;;11.63;8.73;;;;;;;;;;5035950;28;20435;-77
2022/03/10 07:23:50;;;;;;;9.67;7.43;;;;;;;;;;5035402;28;20887;-78
2022/03/10 07:26:26;;;;;;;12.03;7.23;;;;;;;;;;5035316;28;20416;-77
2022/03/10 07:28:52;;;;;;;9.50;6.80;;;;;;;;;;5035949;28;20486;-77
2022/03/10 07:31:21;;;;;;;10.33;8.03;;;;;;;;;;5035155;28;20903;-77
2022/03/10 07:33:48;;;;;;;8.60;7.17;;;;;;;;;;5035677;28;20491;-77
2022/03/10 07:36:14;;;;;;;11.77;8.30;;;;;;;;;;5035406;28;20446;-77
2022/03/10 07:38:40;;;;;;;11.60;7.80;;;;;;;;;;5035294;28;20758;-77
2022/03/10 07:41:07;;;;;;;10.57;7.40;;;;;;;;;;5035621;28;20177;-77
2022/03/10 07:43:33;;;;;;;9.53;7.23;;;;;;;;;;5035566;28;20506;-77
2022/03/10 07:46:00;;;;;;;9.80;7.10;;;;;;;;;;5035488;28;21035;-77
2022/03/10 07:48:26;;;;;;;10.20;8.20;;;;;;;;;;5034244;28;20417;-77
2022/03/10 07:50:52;;;;;;;9.60;7.93;;;;;;;;;;5035325;28;20437;-77
2022/03/10 07:53:19;;;;;;;12.27;7.77;;;;;;;;;;5033778;28;20435;-77
2022/03/10 07:55:45;;;;;;;9.67;7.60;;;;;;;;;;5035264;28;20829;-76
2022/03/10 07:58:11;;;;;;;11.70;7.87;;;;;;;;;;5034974;28;20431;-76
2022/03/10 08:00:37;;;;;;;11.90;7.03;;;;;;;;;;5034217;28;20775;-76
2022/03/10 08:03:03;;;;;;;10.87;8.87;;;;;;;;;;5035081;28;20418;-77
2022/03/10 08:05:29;;;;;;;12.50;8.10;;;;;;;;;;5033708;28;20540;-76
2022/03/10 08:07:58;;;;;;;10.83;7.07;;;;;;;;;;5034572;28;20782;-76
2022/03/10 08:10:24;;;;;;;13.20;8.67;;;;;;;;;;5034932;28;20420;-77
2022/03/10 08:12:50;;;;;;;10.83;6.77;;;;;;;;;;5033586;28;20420;-77
2022/03/10 08:15:16;;;;;;;13.10;8.23;;;;;;;;;;5033642;28;20177;-76
2022/03/10 08:17:42;;;;;;;14.10;7.70;;;;;;;;;;5034850;28;20523;-77
2022/03/10 08:20:08;;;;;;;12.17;8.63;;;;;;;;;;5034802;28;20421;-77
2022/03/10 08:22:34;;;;;;;10.60;7.80;;;;;;;;;;5034797;28;20928;-78
2022/03/10 08:25:00;;;;;;;10.70;7.83;;;;;;;;;;5034388;28;20866;-77
2022/03/10 08:27:26;;;;;;;11.10;8.47;;;;;;;;;;5035445;28;20512;-78
2022/03/10 08:29:52;;;;;;;12.93;8.17;;;;;;;;;;5035758;28;20945;-77
2022/03/10 08:32:25;;;;;;;10.33;8.50;;;;;;;;;;5040837;28;20418;-78
2022/03/10 08:34:51;;;;;;;11.80;8.40;;;;;;;;;;5034486;28;20496;-79
2022/03/10 08:37:18;;;;;;;9.97;6.93;;;;;;;;;;5034656;28;20980;-77
2022/03/10 08:39:44;;;;;;;12.13;7.90;;;;;;;;;;5034445;28;20759;-78
2022/03/10 08:42:10;;;;;;;13.47;8.40;;;;;;;;;;5034582;28;20414;-78
2022/03/10 08:44:37;;;;;;;11.70;8.17;;;;;;;;;;5034579;28;20478;-78
2022/03/10 08:47:03;;;;;;;12.67;7.87;;;;;;;;;;5034492;28;20944;-78
2022/03/10 08:49:29;;;;;;;10.73;8.70;;;;;;;;;;5034579;28;20419;-78
2022/03/10 08:51:55;;;;;;;12.93;9.10;;;;;;;;;;5034372;28;20927;-77
2022/03/10 08:54:21;;;;;;;9.97;7.50;;;;;;;;;;5034033;28;20923;-79
2022/03/10 08:56:47;;;;;;;10.77;7.17;;;;;;;;;;5034406;28;20772;-78
2022/03/10 08:59:13;;;;;;;10.83;8.47;;;;;;;;;;5034206;28;20451;-79
2022/03/10 09:01:40;;;;;;;11.30;8.23;;;;;;;;;;5034216;28;20429;-77
2022/03/10 09:04:06;;;;;;;9.83;8.00;;;;;;;;;;5034001;28;20418;-78
2022/03/10 09:06:32;;;;;;;10.10;8.53;;;;;;;;;;5034033;28;20427;-78
2022/03/10 09:08:59;;;;;;;10.17;8.67;;;;;;;;;;5033657;28;20419;-78
2022/03/10 09:11:25;;;;;;;12.27;8.37;;;;;;;;;;5033697;28;20509;-78
2022/03/10 09:13:50;;;;;;;10.90;6.87;;;;;;;;;;5032526;28;20990;-77
2022/03/10 09:16:20;;;;;;;10.30;7.87;;;;;;;;;;5033923;28;20179;-77
2022/03/10 09:18:46;;;;;;;10.07;7.50;;;;;;;;;;5034114;28;20420;-77
2022/03/10 09:21:13;;;;;;;9.87;8.13;;;;;;;;;;5033969;28;20416;-77
2022/03/10 09:23:39;;;;;;;16.60;8.80;;;;;;;;;;5040307;28;20419;-78
2022/03/10 09:26:05;;;;;;;11.60;8.47;;;;;;;;;;5033649;28;20469;-78
2022/03/10 09:28:31;;;;;;;9.83;7.80;;;;;;;;;;5033797;28;20507;-78
2022/03/10 09:30:57;;;;;;;10.20;8.40;;;;;;;;;;5033815;28;20448;-77
2022/03/10 09:33:23;;;;;;;10.20;8.00;;;;;;;;;;5033834;28;20464;-78
2022/03/10 09:35:49;;;;;;;10.67;7.93;;;;;;;;;;5033426;28;20174;-77
2022/03/10 09:38:16;;;;;;;9.53;7.40;;;;;;;;;;5033013;28;20466;-77
2022/03/10 09:40:46;;;;;;;9.17;6.53;;;;;;;;;;5033734;28;20985;-78
2022/03/10 09:43:12;;;;;;;8.50;7.30;;;;;;;;;;5032126;28;20409;-78
2022/03/10 09:45:38;;;;;;;10.10;8.10;;;;;;;;;;5033391;28;20500;-78
2022/03/10 09:48:04;;;;;;;11.30;9.10;;;;;;;;;;5033308;28;20428;-78
2022/03/10 09:50:30;;;;;;;10.73;8.50;;;;;;;;;;5033155;28;20418;-78
2022/03/10 09:52:56;;;;;;;9.23;8.00;;;;;;;;;;5032960;28;20953;-77
2022/03/10 09:55:22;;;;;;;10.77;9.20;;;;;;;;;;5033233;28;20864;-78
2022/03/10 09:57:48;;;;;;;10.63;9.50;;;;;;;;;;5033211;28;20860;-78
2022/03/10 10:00:16;;;;;;;10.60;8.60;;;;;;;;;;5033087;28;20427;-78
2022/03/10 10:02:44;;;;;;;9.67;7.93;;;;;;;;;;5031740;28;20451;-78
2022/03/10 10:05:23;;;;;;;14.50;8.10;;;;;;;;;;5032771;28;20586;-78
2022/03/10 10:08:08;;;;;;;10.90;7.57;;;;;;;;;;5032597;28;20776;-78
2022/03/10 10:10:35;;;;;;;9.10;7.87;;;;;;;;;;5031788;28;21104;-79
2022/03/10 10:13:05;;;;;;;10.13;9.10;;;;;;;;;;5032934;28;20973;-79
2022/03/10 10:15:35;;;;;;;11.50;9.70;;;;;;;;;;5031859;28;20428;-78
2022/03/10 10:18:01;;;;;;;11.43;8.20;;;;;;;;;;5032933;28;20492;-78
2022/03/10 10:20:45;;;;;;;12.07;10.87;;;;;;;;;;5032961;28;20412;-79
2022/03/10 10:23:24;;;;;;;11.43;10.10;;;;;;;;;;5036027;28;20514;-78
2022/03/10 10:25:50;;;;;;;10.60;8.40;;;;;;;;;;5039425;28;20476;-78
2022/03/10 10:28:23;;;;;;;12.83;8.93;;;;;;;;;;5039658;28;20403;-78
2022/03/10 10:30:56;;;;;;;11.17;9.53;;;;;;;;;;5039355;28;20214;-78
2022/03/10 10:33:22;;;;;;;11.37;9.60;;;;;;;;;;5038073;28;20780;-78
2022/03/10 10:35:48;;;;;;;11.03;8.53;;;;;;;;;;5039422;28;20450;-78
2022/03/10 10:38:28;;;;;;;10.13;8.30;;;;;;;;;;5038933;28;21055;-79
2022/03/10 10:41:14;;;;;;;9.73;8.50;;;;;;;;;;5039367;28;20410;-78
2022/03/10 10:43:47;;;;;;;11.17;9.13;;;;;;;;;;5039399;28;20453;-78
2022/03/10 10:46:22;;;;;;;10.30;8.77;;;;;;;;;;5039206;28;20529;-78
2022/03/10 10:48:48;;;;;;;9.23;8.33;;;;;;;;;;5039225;28;20411;-78
2022/03/10 10:51:15;;;;;;;11.53;8.70;;;;;;;;;;5039182;28;20478;-78
2022/03/10 10:53:40;;;;;;;12.30;8.47;;;;;;;;;;5038896;28;20412;-78
2022/03/10 10:56:07;;;;;;;10.30;8.03;;;;;;;;;;5039110;28;20416;-78
2022/03/10 10:58:33;;;;;;;9.30;8.13;;;;;;;;;;5039259;28;20815;-78
2022/03/10 11:00:59;;;;;;;9.87;8.87;;;;;;;;;;5039081;28;20774;-78
2022/03/10 11:03:26;;;;;;;12.20;8.47;;;;;;;;;;5039062;28;20397;-78
2022/03/10 11:05:53;;;;;;;10.40;8.30;;;;;;;;;;5038998;28;20565;-78
2022/03/10 11:08:20;;;;;;;8.50;7.67;;;;;;;;;;5037360;28;20770;-78
2022/03/10 11:10:46;;;;;;;11.30;8.80;;;;;;;;;;5039007;28;20416;-78
2022/03/10 11:13:12;;;;;;;11.43;7.63;;;;;;;;;;5039005;28;20423;-78
2022/03/10 11:15:39;;;;;;;9.90;7.67;;;;;;;;;;5038983;28;20419;-78
2022/03/10 11:18:05;;;;;;;10.40;7.40;;;;;;;;;;5039115;28;20427;-78
2022/03/10 11:20:34;;;;;;;11.60;8.67;;;;;;;;;;5038815;28;20414;-78
2022/03/10 11:23:00;;;;;;;12.33;8.43;;;;;;;;;;5038686;28;20408;-77
2022/03/10 11:25:26;;;;;;;8.70;7.50;;;;;;;;;;5038849;28;20471;-78
2022/03/10 11:27:57;;;;;;;9.13;6.77;;;;;;;;;;5037484;28;20290;-79
2022/03/10 11:30:27;;;;;;;9.73;7.10;;;;;;;;;;5037448;28;20471;-78
2022/03/10 11:33:00;;;;;;;11.00;7.67;;;;;;;;;;5038534;28;20423;-78
2022/03/10 11:35:29;;;;;;;9.33;7.63;;;;;;;;;;5035506;28;20770;-78
2022/03/10 11:37:55;;;;;;;9.90;8.43;;;;;;;;;;5035094;28;20466;-78
2022/03/10 11:40:39;;;;;;;10.83;8.60;;;;;;;;;;5035543;28;20420;-79
2022/03/10 11:43:05;;;;;;;12.30;8.30;;;;;;;;;;5035577;28;20205;-79
2022/03/10 11:45:31;;;;;;;10.43;8.23;;;;;;;;;;5035421;28;20484;-78
2022/03/10 11:48:17;;;;;;;13.03;10.00;;;;;;;;;;5035421;28;20905;-78
2022/03/10 11:50:43;;;;;;;11.97;8.00;;;;;;;;;;5035335;28;20407;-78
2022/03/10 11:53:12;;;;;;;13.27;10.17;;;;;;;;;;5035031;28;20424;-80
2022/03/10 11:55:51;;;;;;;11.40;8.27;;;;;;;;;;5033994;28;20570;-78
2022/03/10 11:58:17;;;;;;;10.70;8.33;;;;;;;;;;5035313;28;20424;-78
2022/03/10 12:00:44;;;;;;;10.43;9.13;;;;;;;;;;5035248;28;20408;-78
2022/03/10 12:03:10;;;;;;;11.27;8.80;;;;;;;;;;5035270;28;20476;-78
2022/03/10 12:05:58;;;;;;;11.87;9.70;;;;;;;;;;5035146;28;20472;-78
2022/03/10 12:08:25;;;;;;;8.97;7.67;;;;;;;;;;5034689;28;20405;-78
2022/03/10 12:10:51;;;;;;;8.00;5.80;;;;;;;;;;5035089;28;21115;-78
2022/03/10 12:13:23;;;;;;;8.10;6.63;;;;;;;;;;5033815;28;20501;-78
2022/03/10 12:15:50;;;;;;;8.50;6.33;;;;;;;;;;5034965;28;20457;-78
2022/03/10 12:18:17;;;;;;;7.47;5.50;;;;;;;;;;5035057;28;20427;-78
2022/03/10 12:20:44;;;;;;;9.47;5.67;;;;;;;;;;5034774;28;20416;-77
2022/03/10 12:23:15;;;;;;;6.63;5.30;;;;;;;;;;5034554;28;20426;-78
2022/03/10 12:25:46;;;;;;;8.63;6.00;;;;;;;;;;5034728;28;20567;-78
2022/03/10 12:28:21;;;;;;;8.70;6.90;;;;;;;;;;5034679;28;20406;-78
2022/03/10 12:30:47;;;;;;;7.53;5.40;;;;;;;;;;5034784;28;20519;-77
2022/03/10 12:33:13;;;;;;;7.10;6.27;;;;;;;;;;5034670;28;20418;-78
2022/03/10 12:35:41;;;;;;;8.00;5.60;;;;;;;;;;5034591;28;20416;-78
2022/03/10 12:38:08;;;;;;;6.73;6.03;;;;;;;;;;5034143;28;20494;-78
2022/03/10 12:40:35;;;;;;;8.00;6.43;;;;;;;;;;5034304;28;20416;-78
2022/03/10 12:43:01;;;;;;;8.67;5.80;;;;;;;;;;5034515;28;20494;-78
2022/03/10 12:45:27;;;;;;;7.50;5.80;;;;;;;;;;5033797;28;20577;-79
2022/03/10 12:48:01;;;;;;;8.50;5.60;;;;;;;;;;5034502;28;20931;-78
2022/03/10 12:50:27;;;;;;;8.17;6.30;;;;;;;;;;5034442;28;20424;-79
2022/03/10 12:52:55;;;;;;;9.63;6.20;;;;;;;;;;5033981;28;20448;-79
2022/03/10 12:55:28;;;;;;;10.00;5.50;;;;;;;;;;5034405;28;20440;-78
2022/03/10 12:57:58;;;;;;;6.63;5.70;;;;;;;;;;5034499;28;20455;-79
2022/03/10 13:00:24;;;;;;;9.77;5.07;;;;;;;;;;5034531;28;20413;-78
2022/03/10 13:02:54;;;;;;;8.93;7.00;;;;;;;;;;5034092;28;20540;-77
2022/03/10 13:05:21;;;;;;;8.50;6.67;;;;;;;;;;5034048;28;20618;-78
2022/03/10 13:07:47;;;;;;;9.50;5.60;;;;;;;;;;5033633;28;20411;-79
2022/03/10 13:10:15;;;;;;;7.63;6.30;;;;;;;;;;5034065;28;20590;-79
2022/03/10 13:12:42;;;;;;;7.53;5.80;;;;;;;;;;5033970;28;20764;-78
2022/03/10 13:15:18;;;;;;;8.93;6.73;;;;;;;;;;5033988;28;20425;-78
2022/03/10 13:17:44;;;;;;;9.53;7.23;;;;;;;;;;5033994;28;20408;-77
2022/03/10 13:20:14;;;;;;;9.47;7.10;;;;;;;;;;5033936;28;20444;-78
2022/03/10 13:22:47;;;;;;;8.63;4.97;;;;;;;;;;5033445;28;20416;-78
2022/03/10 13:25:15;;;;;;;7.40;4.80;;;;;;;;;;5033658;28;20475;-78
2022/03/10 13:27:41;;;;;;;12.20;6.23;;;;;;;;;;5032708;28;20421;-77
2022/03/10 13:30:07;;;;;;;8.60;6.33;;;;;;;;;;5033630;28;20777;-78
2022/03/10 13:32:34;;;;;;;9.50;5.50;;;;;;;;;;5032484;28;20185;-78
2022/03/10 13:35:01;;;;;;;8.83;5.50;;;;;;;;;;5033622;28;20903;-77
2022/03/10 13:37:27;;;;;;;9.00;6.10;;;;;;;;;;5031708;28;20990;-78
2022/03/10 13:39:53;;;;;;;9.53;5.50;;;;;;;;;;5033542;28;20727;-77
2022/03/10 13:42:30;;;;;;;8.00;5.57;;;;;;;;;;5033577;28;20853;-77
2022/03/10 13:45:00;;;;;;;11.87;6.17;;;;;;;;;;5033452;28;20467;-77
2022/03/10 13:47:29;;;;;;;10.40;5.80;;;;;;;;;;5033449;28;20992;-77
2022/03/10 13:49:57;;;;;;;11.50;6.63;;;;;;;;;;5033280;28;20402;-77
2022/03/10 13:52:23;;;;;;;10.10;6.93;;;;;;;;;;5033075;28;20504;-78
2022/03/10 13:54:50;;;;;;;10.03;7.10;;;;;;;;;;5033225;28;20408;-77
2022/03/10 13:57:16;;;;;;;11.37;7.13;;;;;;;;;;5032014;28;20412;-77
2022/03/10 13:59:42;;;;;;;9.07;6.67;;;;;;;;;;5033175;28;20412;-77
2022/03/10 14:02:24;;;;;;;10.33;6.63;;;;;;;;;;5033151;28;20420;-77
2022/03/10 14:04:50;;;;;;;12.13;6.90;;;;;;;;;;5032921;28;20510;-78
2022/03/10 14:07:16;;;;;;;10.63;6.23;;;;;;;;;;5032647;28;20498;-77
2022/03/10 14:09:43;;;;;;;10.50;6.80;;;;;;;;;;5032898;28;20854;-78
2022/03/10 14:12:20;;;;;;;10.00;6.93;;;;;;;;;;5033028;28;20924;-77
2022/03/10 14:14:49;;;;;;;11.00;7.27;;;;;;;;;;5032964;28;20419;-77
2022/03/10 14:17:16;;;;;;;10.33;6.30;;;;;;;;;;5031185;28;20503;-77
2022/03/10 14:19:42;;;;;;;10.13;6.13;;;;;;;;;;5031619;28;20418;-77
2022/03/10 14:22:21;;;;;;;10.00;6.33;;;;;;;;;;5031149;28;20431;-77
2022/03/10 14:24:55;;;;;;;12.63;6.70;;;;;;;;;;5032720;28;20456;-77
2022/03/10 14:27:21;;;;;;;13.30;6.67;;;;;;;;;;5032767;28;20424;-77
2022/03/10 14:29:52;;;;;;;9.53;5.07;;;;;;;;;;5032761;28;20416;-77
2022/03/10 14:32:17;;;;;;;10.57;6.23;;;;;;;;;;5033111;28;20775;-77
2022/03/10 14:34:43;;;;;;;14.60;6.83;;;;;;;;;;5032232;28;20432;-79
2022/03/10 14:37:11;;;;;;;10.10;6.23;;;;;;;;;;5040607;28;20481;-79
2022/03/10 14:39:38;;;;;;;9.37;6.30;;;;;;;;;;5032484;28;20764;-78
2022/03/10 14:42:04;;;;;;;8.50;5.33;;;;;;;;;;5032492;28;20417;-78